createdAt,value
2022-08-31T00:02:16.720Z,15.98
2022-08-31T00:07:25.240Z,15.92
2022-08-31T00:12:33.936Z,15.94
2022-08-31T00:17:41.133Z,15.89
2022-08-31T00:22:49.665Z,15.86
2022-08-31T00:27:55.778Z,15.78
2022-08-31T00:33:00.815Z,15.77
2022-08-31T00:38:08.944Z,15.72
2022-08-31T00:43:14.799Z,15.67
2022-08-31T00:48:19.423Z,15.63
2022-08-31T00:53:27.285Z,15.61
2022-08-31T00:58:32.104Z,15.57
2022-08-31T01:03:36.770Z,15.51
2022-08-31T01:08:44.798Z,15.50
2022-08-31T01:13:50.200Z,15.43
2022-08-31T01:18:58.993Z,15.43
2022-08-31T01:24:08.370Z,15.40
2022-08-31T01:29:12.996Z,15.34
2022-08-31T01:34:22.007Z,15.31
2022-08-31T01:39:30.161Z,15.30
2022-08-31T01:44:35.411Z,15.26
2022-08-31T01:49:47.165Z,15.24
2022-08-31T01:54:54.457Z,15.20
2022-08-31T02:00:02.341Z,15.16
2022-08-31T02:05:28.320Z,15.08
2022-08-31T02:10:36.500Z,15.02
2022-08-31T02:15:41.613Z,14.98
2022-08-31T02:20:46.823Z,14.89
2022-08-31T02:25:55.749Z,14.84
2022-08-31T02:31:00.467Z,14.75
2022-08-31T02:36:06.334Z,14.71
2022-08-31T02:41:13.660Z,14.63
2022-08-31T02:46:20.676Z,14.56
2022-08-31T02:51:35.565Z,14.49
2022-08-31T02:56:44.096Z,14.44
2022-08-31T03:01:48.913Z,14.40
2022-08-31T03:06:55.130Z,14.37
2022-08-31T03:12:02.696Z,14.35
2022-08-31T03:17:08.111Z,14.33
2022-08-31T03:22:15.057Z,14.30
2022-08-31T03:27:22.813Z,14.22
2022-08-31T03:32:27.648Z,14.11
2022-08-31T03:37:33.496Z,14.11
2022-08-31T03:42:42.848Z,14.02
2022-08-31T03:47:51.041Z,14.00
2022-08-31T03:52:56.539Z,13.98
2022-08-31T03:58:05.103Z,14.01
2022-08-31T04:03:14.311Z,13.97
2022-08-31T04:08:38.135Z,13.96
2022-08-31T04:14:15.690Z,13.96
2022-08-31T04:19:41.673Z,13.93
2022-08-31T04:25:10.562Z,13.92
2022-08-31T04:30:50.856Z,13.91
2022-08-31T04:35:56.035Z,13.84
2022-08-31T04:41:01.053Z,13.82
2022-08-31T04:46:11.309Z,13.76
2022-08-31T04:51:19.224Z,13.74
2022-08-31T04:56:26.849Z,13.76
2022-08-31T05:01:43.239Z,13.81
2022-08-31T05:06:54.730Z,13.83
2022-08-31T05:12:00.022Z,13.85
2022-08-31T05:17:14.963Z,13.87
2022-08-31T05:22:20.368Z,13.85
2022-08-31T05:27:26.912Z,13.85
2022-08-31T05:32:34.221Z,13.86
2022-08-31T05:37:43.103Z,13.86
2022-08-31T05:42:48.129Z,13.85
2022-08-31T05:47:55.691Z,13.82
2022-08-31T05:53:00.634Z,13.79
2022-08-31T05:58:05.419Z,13.85
2022-08-31T06:03:12.650Z,13.93
2022-08-31T06:08:37.385Z,13.94
2022-08-31T06:14:09.811Z,14.03
2022-08-31T06:19:17.981Z,14.10
2022-08-31T06:24:25.587Z,14.17
2022-08-31T06:29:32.423Z,14.25
2022-08-31T06:34:42.520Z,14.31
2022-08-31T06:40:06.984Z,14.41
2022-08-31T06:45:30.454Z,14.51
2022-08-31T06:51:01.421Z,14.65
2022-08-31T06:56:16.430Z,14.70
2022-08-31T07:01:48.825Z,14.75
2022-08-31T07:07:13.021Z,14.94
2022-08-31T07:12:19.129Z,15.07
2022-08-31T07:17:27.239Z,15.19
2022-08-31T07:22:34.598Z,15.36
2022-08-31T07:27:59.471Z,15.58
2022-08-31T07:33:07.216Z,15.77
2022-08-31T07:38:30.948Z,16.03
2022-08-31T07:43:35.752Z,16.23
2022-08-31T07:48:41.949Z,16.40
2022-08-31T07:54:08.640Z,16.58
2022-08-31T07:59:42.970Z,16.69
2022-08-31T08:04:54.296Z,16.84
2022-08-31T08:10:37.743Z,16.79
2022-08-31T08:16:03.301Z,16.94
2022-08-31T08:21:29.323Z,17.08
2022-08-31T08:26:36.751Z,17.27
2022-08-31T08:31:42.809Z,17.40
2022-08-31T08:36:47.562Z,17.52
2022-08-31T08:41:58.842Z,17.67
2022-08-31T08:47:06.200Z,17.79
2022-08-31T08:52:27.899Z,17.98
2022-08-31T08:57:39.090Z,18.17
2022-08-31T09:02:58.430Z,18.27
2022-08-31T09:08:42.675Z,18.44
2022-08-31T09:14:06.777Z,18.56
2022-08-31T09:19:17.291Z,18.67
2022-08-31T09:24:27.173Z,18.76
2022-08-31T09:30:01.516Z,19.08
2022-08-31T09:35:09.421Z,19.21
2022-08-31T09:40:23.605Z,19.26
2022-08-31T09:45:38.701Z,19.35
2022-08-31T09:50:48.879Z,19.47
2022-08-31T09:56:13.336Z,19.64
2022-08-31T10:01:28.344Z,19.59
2022-08-31T10:06:46.664Z,19.56
2022-08-31T10:11:57.804Z,19.63
2022-08-31T10:17:12.975Z,19.42
2022-08-31T10:22:28.286Z,19.43
2022-08-31T10:27:41.151Z,19.58
2022-08-31T10:32:56.047Z,19.69
2022-08-31T10:38:10.356Z,19.84
2022-08-31T10:43:19.460Z,19.83
2022-08-31T10:48:28.903Z,19.92
2022-08-31T10:53:51.029Z,20.11
2022-08-31T10:59:11.003Z,20.23
2022-08-31T11:04:37.500Z,20.32
2022-08-31T11:09:50.437Z,20.53
2022-08-31T11:15:22.586Z,20.68
2022-08-31T11:20:48.142Z,20.72
2022-08-31T11:26:20.646Z,20.72
2022-08-31T11:31:32.028Z,20.89
2022-08-31T11:36:55.239Z,20.83
2022-08-31T11:42:00.606Z,21.01
2022-08-31T11:47:08.216Z,20.98
2022-08-31T11:52:34.699Z,20.97
2022-08-31T11:58:21.348Z,21.10
2022-08-31T12:03:46.279Z,21.33
2022-08-31T12:08:55.319Z,21.43
2022-08-31T12:14:06.016Z,21.38
2022-08-31T12:19:48.157Z,21.52
2022-08-31T12:25:11.816Z,21.69
2022-08-31T12:30:21.621Z,21.72
2022-08-31T12:35:28.947Z,21.83
2022-08-31T12:40:38.709Z,21.75
2022-08-31T12:46:17.109Z,21.66
2022-08-31T12:51:38.513Z,21.72
2022-08-31T12:56:56.789Z,21.73
2022-08-31T13:02:06.173Z,21.70
2022-08-31T13:07:37.040Z,21.72
2022-08-31T13:12:52.667Z,21.81
2022-08-31T13:18:05.253Z,21.76
2022-08-31T13:23:11.552Z,21.69
2022-08-31T13:28:30.568Z,21.87
2022-08-31T13:33:40.311Z,22.10
2022-08-31T13:38:51.766Z,22.14
2022-08-31T13:44:03.670Z,22.26
2022-08-31T13:49:11.660Z,22.38
2022-08-31T13:54:30.686Z,22.56
2022-08-31T13:59:41.015Z,22.75
2022-08-31T14:05:00.447Z,22.94
2022-08-31T14:10:09.319Z,23.12
2022-08-31T14:15:36.502Z,23.09
2022-08-31T14:21:09.948Z,22.89
2022-08-31T14:26:15.774Z,22.82
2022-08-31T14:31:29.218Z,22.65
2022-08-31T14:36:51.205Z,22.71
2022-08-31T14:41:57.804Z,22.73
2022-08-31T14:47:07.009Z,22.70
2022-08-31T14:52:13.082Z,22.35
2022-08-31T14:57:25.282Z,22.13
2022-08-31T15:02:35.588Z,22.08
2022-08-31T15:07:44.613Z,22.04
2022-08-31T15:12:50.578Z,21.88
2022-08-31T15:17:57.937Z,21.57
2022-08-31T15:23:03.321Z,21.35
2022-08-31T15:28:08.789Z,21.18
2022-08-31T15:33:16.035Z,21.04
2022-08-31T15:38:20.920Z,20.95
2022-08-31T15:43:25.713Z,20.88
2022-08-31T15:48:45.446Z,20.82
2022-08-31T15:54:11.671Z,20.82
2022-08-31T15:59:16.845Z,20.71
2022-08-31T16:04:26.083Z,20.67
2022-08-31T16:09:30.794Z,20.55
2022-08-31T16:14:38.491Z,20.53
2022-08-31T16:19:45.712Z,20.47
2022-08-31T16:24:52.661Z,20.39
2022-08-31T16:29:58.368Z,20.25
2022-08-31T16:35:06.559Z,20.20
2022-08-31T16:40:13.954Z,20.09
2022-08-31T16:45:21.093Z,20.04
2022-08-31T16:50:28.298Z,20.01
2022-08-31T16:55:34.733Z,19.95
2022-08-31T17:00:40.255Z,19.90
2022-08-31T17:05:49.428Z,19.84
2022-08-31T17:10:54.412Z,19.75
2022-08-31T17:15:59.079Z,19.69
2022-08-31T17:21:06.539Z,19.64
2022-08-31T17:26:12.678Z,19.59
2022-08-31T17:31:17.347Z,19.61
2022-08-31T17:36:25.499Z,19.63
2022-08-31T17:41:30.687Z,19.64
2022-08-31T17:46:35.619Z,19.55
2022-08-31T17:51:43.456Z,19.46
2022-08-31T17:56:53.897Z,19.33
2022-08-31T18:02:00.926Z,19.20
2022-08-31T18:07:09.503Z,19.08
2022-08-31T18:12:14.729Z,18.99
2022-08-31T18:17:21.668Z,18.87
2022-08-31T18:22:29.234Z,18.74
2022-08-31T18:27:34.096Z,18.59
2022-08-31T18:32:38.930Z,18.48
2022-08-31T18:37:55.030Z,18.39
2022-08-31T18:43:12.278Z,18.31
2022-08-31T18:48:25.711Z,18.17
2022-08-31T18:53:37.833Z,18.13
2022-08-31T18:58:43.583Z,18.03
2022-08-31T19:03:48.525Z,17.95
2022-08-31T19:08:56.884Z,17.85
2022-08-31T19:14:03.268Z,17.74
2022-08-31T19:19:08.206Z,17.70
2022-08-31T19:24:18.708Z,17.66
2022-08-31T19:29:27.121Z,17.63
2022-08-31T19:34:34.507Z,17.59
2022-08-31T19:39:45.692Z,17.53
2022-08-31T19:44:54.987Z,17.51
2022-08-31T19:50:18.054Z,17.49
2022-08-31T19:55:25.322Z,17.48
2022-08-31T20:00:30.782Z,17.45
2022-08-31T20:05:40.119Z,17.36
2022-08-31T20:10:49.284Z,17.32
2022-08-31T20:15:54.749Z,17.29
2022-08-31T20:21:01.458Z,17.24
2022-08-31T20:26:11.897Z,17.19
2022-08-31T20:31:17.167Z,17.12
2022-08-31T20:36:26.588Z,17.10
2022-08-31T20:41:35.203Z,17.08
2022-08-31T20:46:57.069Z,17.06
2022-08-31T20:52:02.824Z,17.05
2022-08-31T20:57:12.068Z,17.07
2022-08-31T21:02:17.575Z,17.08
2022-08-31T21:07:23.303Z,17.05
2022-08-31T21:12:31.211Z,17.05
2022-08-31T21:17:36.126Z,17.06
2022-08-31T21:22:40.952Z,17.05
2022-08-31T21:27:48.163Z,17.03
2022-08-31T21:32:53.937Z,17.02
2022-08-31T21:37:59.063Z,16.99
2022-08-31T21:43:07.140Z,16.97
2022-08-31T21:48:11.799Z,16.91
2022-08-31T21:53:16.494Z,16.90
2022-08-31T21:58:24.000Z,16.86
2022-08-31T22:03:36.801Z,16.83
2022-08-31T22:08:42.700Z,16.77
2022-08-31T22:13:51.990Z,16.75
2022-08-31T22:19:01.389Z,16.75
2022-08-31T22:24:10.287Z,16.72
2022-08-31T22:29:23.829Z,16.71
2022-08-31T22:34:29.419Z,16.69
2022-08-31T22:39:35.046Z,16.67
2022-08-31T22:44:44.020Z,16.62
2022-08-31T22:49:48.704Z,16.58
2022-08-31T22:54:53.892Z,16.57
2022-08-31T23:00:01.152Z,16.55
2022-08-31T23:05:05.752Z,16.53
2022-08-31T23:10:13.970Z,16.53
2022-08-31T23:15:22.766Z,16.50
2022-08-31T23:20:27.908Z,16.43
2022-08-31T23:25:32.719Z,16.39
2022-08-31T23:30:43.977Z,16.31
2022-08-31T23:35:50.048Z,16.28
2022-08-31T23:40:56.359Z,16.23
2022-08-31T23:46:05.598Z,16.17
2022-08-31T23:51:11.758Z,16.08
2022-08-31T23:56:18.206Z,15.99
